This is the latest recevied weather packets stored in our database for station/object KD5GAT-51. If no packets are shown the sender has not sent any weather packets the latest 10 day(s).
| Time | Temp. | Humidity | Pressure | Rain* | Wind** | Luminosity | Snow |
|---|---|---|---|---|---|---|---|
| 1777409732 | 35.56° C | 58% | 1012.9 hPa | - | - | - | - |
| 1777408832 | 35° C | 61% | 1012.9 hPa | - | - | - | - |
| 1777407932 | 34.44° C | 65% | 1013.2 hPa | - | - | - | - |
| 1777407032 | 35.56° C | 62% | 1013.5 hPa | - | - | - | - |
| 1777406132 | 36.11° C | 60% | 1013.8 hPa | - | - | - | - |
| 1777405232 | 35.56° C | 64% | 1013.7 hPa | - | - | - | - |
| 1777404331 | 35° C | 66% | 1014.2 hPa | - | - | - | - |
| 1777403431 | 33.33° C | 72% | 1014.3 hPa | - | - | - | - |
| 1777402531 | 32.22° C | 80% | 1014.6 hPa | - | - | - | - |
| 1777401631 | 31.11° C | 90% | 1014.6 hPa | - | - | - | - |
| 1777400731 | 30.56° C | 90% | 1014.7 hPa | - | - | - | - |
| 1777399831 | 30.56° C | 89% | 1014.7 hPa | - | - | - | - |
| 1777398930 | 30.56° C | 91% | 1014.6 hPa | - | - | - | - |
| 1777398030 | 30° C | 94% | 1014.9 hPa | - | - | - | - |
| 1777397130 | 28.89° C | 98% | 1015.1 hPa | - | - | - | - |
| 1777396230 | 28.89° C | 99% | 1015.4 hPa | - | - | - | - |
| 1777395330 | 28.33° C | 100% | 1015.5 hPa | - | - | - | - |
| 1777394430 | 28.89° C | 100% | 1015.5 hPa | - | - | - | - |
| 1777393530 | 28.89° C | 100% | 1015.4 hPa | - | - | - | - |
| 1777392629 | 28.33° C | 100% | 1015.4 hPa | - | - | - | - |
| 1777391729 | 28.33° C | 100% | 1015.4 hPa | - | - | - | - |
| 1777390829 | 27.78° C | 100% | 1015.4 hPa | - | - | - | - |
| 1777389929 | 27.22° C | 100% | 1015.4 hPa | - | - | - | - |
| 1777389029 | 27.78° C | 100% | 1015.4 hPa | - | - | - | - |
| 1777388128 | 27.78° C | 100% | 1015.3 hPa | - | - | - | - |
* Rain since midnight (hover to see other rain measurements)
** Current wind speed in m/s (hover to see current wind gust speed)